Time;durP1;ratioP1;P1;durP2;ratioP2;P2;SDS_P1;SDS_P2;PMS_P1;PMS_P2;Temp;Humidity;BMP_temperature;BMP_pressure;BME280_temperature;BME280_humidity;BME280_pressure;Samples;Min_cycle;Max_cycle;Signal;HPM_P1;HPM_P2
2023/04/11 00:01:42;;;;;;;6.07;1.70;;;;;14.10;100615.00;;;;5010086;28;20713;-79
2023/04/11 00:04:10;;;;;;;11.73;1.90;;;;;14.10;100619.00;;;;5011075;28;20197;-79
2023/04/11 00:06:37;;;;;;;10.40;1.95;;;;;14.10;100615.00;;;;5012508;28;20201;-79
2023/04/11 00:09:05;;;;;;;20.67;2.97;;;;;14.10;100625.00;;;;5010578;28;20228;-79
2023/04/11 00:11:32;;;;;;;12.95;2.85;;;;;14.10;100617.00;;;;5002790;28;20222;-78
2023/04/11 00:13:59;;;;;;;16.42;2.90;;;;;14.20;100623.00;;;;5010435;28;20205;-79
2023/04/11 00:16:27;;;;;;;19.17;2.90;;;;;14.20;100632.00;;;;5009980;28;20201;-78
2023/04/11 00:18:55;;;;;;;11.85;2.22;;;;;14.20;100626.00;;;;5010746;28;20204;-79
2023/04/11 00:21:23;;;;;;;10.18;1.98;;;;;14.20;100623.00;;;;5010751;28;20204;-79
2023/04/11 00:23:52;;;;;;;13.88;2.78;;;;;14.20;100618.00;;;;5010084;28;20201;-79
2023/04/11 00:26:20;;;;;;;19.80;2.70;;;;;14.30;100621.00;;;;5011767;28;20770;-79
2023/04/11 00:28:47;;;;;;;15.68;2.65;;;;;14.30;100613.00;;;;5009723;28;20225;-78
2023/04/11 00:31:15;;;;;;;9.38;2.20;;;;;14.30;100619.00;;;;5011241;28;20208;-79
2023/04/11 00:33:42;;;;;;;19.05;2.83;;;;;14.30;100619.00;;;;5010157;28;20823;-79
2023/04/11 00:36:11;;;;;;;11.98;2.28;;;;;14.30;100622.00;;;;5008589;28;20220;-79
2023/04/11 00:38:39;;;;;;;17.92;3.17;;;;;14.30;100617.00;;;;5007398;28;20212;-79
2023/04/11 00:41:06;;;;;;;11.45;2.72;;;;;14.30;100616.00;;;;5010415;28;20197;-78
2023/04/11 00:43:34;;;;;;;9.27;2.10;;;;;14.40;100624.00;;;;5009472;28;20670;-78
2023/04/11 00:46:01;;;;;;;12.55;2.72;;;;;14.40;100627.00;;;;4994687;28;20202;-78
2023/04/11 00:48:28;;;;;;;12.27;2.65;;;;;14.40;100637.00;;;;5005481;28;20224;-78
2023/04/11 00:50:56;;;;;;;16.65;2.72;;;;;14.40;100626.00;;;;5010332;28;20197;-78
2023/04/11 00:53:24;;;;;;;15.18;2.05;;;;;14.40;100630.00;;;;5010429;28;20208;-78
2023/04/11 00:55:52;;;;;;;13.98;2.47;;;;;14.40;100623.00;;;;5010337;28;20197;-79
2023/04/11 00:58:20;;;;;;;19.48;3.20;;;;;14.40;100629.00;;;;5010089;28;20288;-78
2023/04/11 01:00:48;;;;;;;9.48;2.38;;;;;14.50;100633.00;;;;5007842;28;20233;-78
2023/04/11 01:03:16;;;;;;;9.50;2.17;;;;;14.50;100632.00;;;;5006089;28;20755;-79
2023/04/11 01:05:44;;;;;;;15.95;2.90;;;;;14.50;100638.00;;;;5009605;28;20737;-79
2023/04/11 01:08:12;;;;;;;21.83;2.83;;;;;14.50;100632.00;;;;5008369;28;20566;-79
2023/04/11 01:10:41;;;;;;;11.13;1.50;;;;;14.50;100631.00;;;;5009727;28;20193;-79
2023/04/11 01:13:10;;;;;;;14.38;2.40;;;;;14.50;100640.00;;;;5008856;28;20208;-78
2023/04/11 01:15:38;;;;;;;10.82;2.47;;;;;14.50;100636.00;;;;5009761;28;20189;-78
2023/04/11 01:18:08;;;;;;;10.07;2.40;;;;;14.50;100638.00;;;;5009631;28;20205;-80
2023/04/11 01:20:37;;;;;;;10.93;1.85;;;;;14.50;100632.00;;;;5005592;28;20572;-79
2023/04/11 01:23:06;;;;;;;17.83;1.88;;;;;14.50;100636.00;;;;5010593;28;20209;-79
2023/04/11 01:25:34;;;;;;;9.52;2.20;;;;;14.50;100625.00;;;;5010807;28;20734;-79
2023/04/11 01:28:02;;;;;;;8.30;2.53;;;;;14.60;100627.00;;;;5008090;28;20224;-79
2023/04/11 01:30:29;;;;;;;9.63;1.88;;;;;14.60;100624.00;;;;5006706;28;20201;-78
2023/04/11 01:32:56;;;;;;;8.88;1.85;;;;;14.60;100626.00;;;;5008656;28;20217;-79
2023/04/11 01:35:24;;;;;;;12.55;2.40;;;;;14.60;100622.00;;;;5009466;28;20205;-79
2023/04/11 01:37:51;;;;;;;8.50;1.75;;;;;14.60;100623.00;;;;5009661;28;20196;-79
2023/04/11 01:40:20;;;;;;;8.90;2.30;;;;;14.60;100622.00;;;;5009506;28;20204;-79
2023/04/11 01:42:50;;;;;;;7.50;1.52;;;;;14.60;100622.00;;;;5010174;28;20252;-79
2023/04/11 01:45:19;;;;;;;10.45;1.63;;;;;14.70;100625.00;;;;5009736;28;20217;-79
2023/04/11 01:47:46;;;;;;;9.23;2.10;;;;;14.70;100633.00;;;;5009686;28;20217;-79
2023/04/11 01:50:15;;;;;;;13.15;1.88;;;;;14.70;100633.00;;;;5008326;28;20582;-79
2023/04/11 01:52:42;;;;;;;11.05;1.33;;;;;14.80;100634.00;;;;4993914;28;20210;-79
2023/04/11 01:55:09;;;;;;;7.50;1.60;;;;;14.80;100647.00;;;;5003663;28;20197;-79
2023/04/11 01:57:37;;;;;;;9.93;2.40;;;;;14.80;100642.00;;;;5010699;28;20197;-79
2023/04/11 02:00:09;;;;;;;6.13;1.20;;;;;14.70;100641.00;;;;5008447;28;20197;-80
2023/04/11 02:02:37;;;;;;;6.93;1.10;;;;;14.80;100651.00;;;;5007885;28;20739;-80
2023/04/11 02:05:05;;;;;;;7.10;1.50;;;;;14.80;100646.00;;;;5007663;28;20205;-79
2023/04/11 02:07:32;;;;;;;7.30;1.15;;;;;14.80;100655.00;;;;5008664;28;20271;-79
2023/04/11 02:09:59;;;;;;;6.05;1.40;;;;;14.80;100647.00;;;;5008297;28;20698;-79
2023/04/11 02:12:27;;;;;;;7.85;1.27;;;;;14.80;100661.00;;;;5007545;28;20217;-79
2023/04/11 02:14:54;;;;;;;5.10;0.90;;;;;14.80;100662.00;;;;5009533;28;20208;-79
2023/04/11 02:17:25;;;;;;;6.57;1.20;;;;;14.80;100674.00;;;;5009116;28;20197;-79
2023/04/11 02:19:53;;;;;;;6.80;1.33;;;;;14.90;100663.00;;;;5005332;28;20209;-80
2023/04/11 02:22:20;;;;;;;7.55;1.33;;;;;14.80;100671.00;;;;5004091;28;21062;-80
2023/04/11 02:24:50;;;;;;;5.35;1.15;;;;;14.90;100676.00;;;;5008600;28;20193;-80
2023/04/11 02:27:17;;;;;;;6.70;1.40;;;;;14.80;100679.00;;;;5005581;28;20204;-80
2023/04/11 02:29:44;;;;;;;4.60;1.02;;;;;14.80;100686.00;;;;5009275;28;20216;-80
2023/04/11 02:32:12;;;;;;;2.05;0.63;;;;;14.80;100672.00;;;;5006799;28;20212;-79
2023/04/11 02:34:41;;;;;;;3.78;0.73;;;;;14.80;100674.00;;;;5009889;28;20200;-80
2023/04/11 02:37:09;;;;;;;4.20;1.17;;;;;14.80;100678.00;;;;5008538;28;20199;-79
2023/04/11 02:39:36;;;;;;;4.05;1.30;;;;;14.80;100669.00;;;;5008935;28;20772;-79
2023/04/11 02:42:03;;;;;;;8.35;0.80;;;;;14.80;100666.00;;;;5008980;28;20210;-79
2023/04/11 02:44:30;;;;;;;1.73;0.63;;;;;14.70;100680.00;;;;5008391;28;20216;-80
2023/04/11 02:46:59;;;;;;;4.15;0.77;;;;;14.70;100670.00;;;;5007966;28;20216;-80
2023/04/11 02:49:26;;;;;;;3.55;0.50;;;;;14.70;100673.00;;;;5007641;28;21524;-79
2023/04/11 02:51:55;;;;;;;5.50;0.70;;;;;14.70;100670.00;;;;5006677;28;20197;-79
2023/04/11 02:54:22;;;;;;;4.38;0.65;;;;;14.70;100676.00;;;;5007813;28;20690;-79
2023/04/11 02:56:49;;;;;;;5.13;0.80;;;;;14.80;100671.00;;;;4997815;28;20198;-79
2023/04/11 02:59:18;;;;;;;1.83;0.80;;;;;14.80;100683.00;;;;5008958;28;20200;-79
2023/04/11 03:01:45;;;;;;;8.65;0.85;;;;;14.80;100676.00;;;;5007852;28;20232;-80
2023/04/11 03:04:12;;;;;;;3.45;0.68;;;;;14.80;100686.00;;;;5005689;28;20198;-80
2023/04/11 03:06:40;;;;;;;4.65;0.82;;;;;14.80;100686.00;;;;5008526;28;20197;-80
2023/04/11 03:09:08;;;;;;;4.78;1.08;;;;;14.80;100685.00;;;;5008033;28;20232;-80
2023/04/11 03:11:36;;;;;;;12.25;1.00;;;;;14.80;100691.00;;;;5008897;28;20227;-79
2023/04/11 03:14:03;;;;;;;7.53;0.85;;;;;14.80;100680.00;;;;5007044;28;20205;-79
2023/04/11 03:16:31;;;;;;;13.15;1.10;;;;;14.70;100697.00;;;;5009292;28;20201;-79
2023/04/11 03:18:58;;;;;;;9.73;1.20;;;;;14.70;100682.00;;;;4992385;28;20284;-80
2023/04/11 03:21:26;;;;;;;5.70;1.23;;;;;14.70;100685.00;;;;4988932;28;20642;-79
2023/04/11 03:23:53;;;;;;;3.53;1.23;;;;;14.60;100687.00;;;;5000557;28;20683;-80
2023/04/11 03:26:25;;;;;;;2.25;0.50;;;;;14.60;100695.00;;;;5008652;28;20197;-80
2023/04/11 03:28:53;;;;;;;5.97;1.33;;;;;14.60;100690.00;;;;5008409;28;20649;-80
2023/04/11 03:31:20;;;;;;;2.75;1.00;;;;;14.60;100691.00;;;;5008960;28;20203;-80
2023/04/11 03:33:48;;;;;;;3.72;0.70;;;;;14.60;100699.00;;;;5008121;28;20196;-80
2023/04/11 03:36:15;;;;;;;4.93;0.40;;;;;14.50;100701.00;;;;4990777;28;20256;-80
2023/04/11 03:38:42;;;;;;;4.43;1.17;;;;;14.50;100703.00;;;;5004221;28;21238;-80
2023/04/11 03:41:10;;;;;;;6.07;0.93;;;;;14.50;100701.00;;;;5008760;28;20232;-79
2023/04/11 03:43:38;;;;;;;5.97;1.15;;;;;14.50;100714.00;;;;5007710;28;20204;-80
2023/04/11 03:46:06;;;;;;;2.70;1.27;;;;;14.50;100715.00;;;;5007788;28;20212;-80
2023/04/11 03:48:33;;;;;;;4.20;0.75;;;;;14.50;100717.00;;;;5007237;28;20225;-80
2023/04/11 03:51:00;;;;;;;6.05;1.20;;;;;14.50;100722.00;;;;5006027;28;20216;-81
2023/04/11 03:53:28;;;;;;;6.78;1.30;;;;;14.50;100724.00;;;;4996082;28;20203;-80
2023/04/11 03:55:55;;;;;;;8.73;0.73;;;;;14.40;100722.00;;;;5007772;28;20208;-80
2023/04/11 03:58:22;;;;;;;3.13;1.02;;;;;14.40;100728.00;;;;5006547;28;20594;-79
2023/04/11 04:00:51;;;;;;;5.90;1.17;;;;;14.40;100734.00;;;;5005388;28;20233;-79
2023/04/11 04:03:18;;;;;;;3.53;0.90;;;;;14.40;100736.00;;;;5006896;28;20207;-80
2023/04/11 04:05:46;;;;;;;5.10;1.02;;;;;14.40;100740.00;;;;5005627;28;20582;-79
2023/04/11 04:08:13;;;;;;;3.58;0.70;;;;;14.30;100744.00;;;;5006155;28;20365;-80
2023/04/11 04:10:41;;;;;;;2.15;0.50;;;;;14.30;100743.00;;;;5002667;28;20216;-80
2023/04/11 04:13:08;;;;;;;4.60;0.90;;;;;14.30;100748.00;;;;4998675;28;20193;-80
2023/04/11 04:15:36;;;;;;;4.43;0.60;;;;;14.30;100746.00;;;;5005735;28;20559;-80
2023/04/11 04:18:05;;;;;;;6.25;0.85;;;;;14.20;100741.00;;;;5006352;28;20216;-80
2023/04/11 04:20:32;;;;;;;3.85;1.33;;;;;14.20;100752.00;;;;5007436;28;20216;-81
2023/04/11 04:23:00;;;;;;;1.50;0.45;;;;;14.20;100756.00;;;;5006184;28;21080;-80
2023/04/11 04:25:27;;;;;;;3.17;0.63;;;;;14.20;100764.00;;;;5005778;28;20193;-80
2023/04/11 04:27:56;;;;;;;6.53;0.93;;;;;14.20;100755.00;;;;5007742;28;20659;-80
2023/04/11 04:30:27;;;;;;;4.63;0.80;;;;;14.20;100761.00;;;;5005734;28;20263;-80
2023/04/11 04:32:57;;;;;;;3.53;1.05;;;;;14.10;100770.00;;;;5006556;28;20189;-79
2023/04/11 04:35:26;;;;;;;1.17;0.40;;;;;14.10;100770.00;;;;5012061;28;20219;-80
2023/04/11 04:37:54;;;;;;;2.42;0.75;;;;;14.10;100774.00;;;;5009612;28;20229;-79
2023/04/11 04:40:21;;;;;;;4.97;1.58;;;;;14.10;100771.00;;;;5012309;28;20189;-80
2023/04/11 04:42:56;;;;;;;2.35;0.60;;;;;14.10;100783.00;;;;5005580;28;20205;-80
2023/04/11 04:45:24;;;;;;;3.05;0.65;;;;;14.00;100786.00;;;;5002026;28;20196;-80
2023/04/11 04:47:52;;;;;;;3.65;0.80;;;;;14.00;100792.00;;;;5010020;28;20193;-80
2023/04/11 04:50:19;;;;;;;4.28;1.05;;;;;13.90;100786.00;;;;5011210;28;20231;-80
2023/04/11 04:52:48;;;;;;;4.45;0.98;;;;;13.90;100790.00;;;;5009010;28;20189;-80
2023/04/11 04:55:15;;;;;;;3.15;0.60;;;;;13.90;100788.00;;;;5007996;28;20209;-79
2023/04/11 04:57:43;;;;;;;4.93;0.75;;;;;13.90;100795.00;;;;5009398;28;20204;-80
2023/04/11 05:00:12;;;;;;;3.40;0.30;;;;;13.80;100811.00;;;;5008851;28;20244;-79
2023/04/11 05:02:39;;;;;;;3.85;0.98;;;;;13.80;100818.00;;;;5009445;28;20275;-80
2023/04/11 05:05:07;;;;;;;4.57;1.23;;;;;13.70;100820.00;;;;5010226;28;20292;-81
2023/04/11 05:07:35;;;;;;;6.43;0.80;;;;;13.70;100813.00;;;;5011152;28;20578;-81
2023/04/11 05:10:04;;;;;;;3.78;0.52;;;;;13.70;100826.00;;;;5009228;28;20225;-80
2023/04/11 05:12:31;;;;;;;2.70;0.77;;;;;13.60;100825.00;;;;5008268;28;20217;-80
2023/04/11 05:15:00;;;;;;;4.88;0.73;;;;;13.60;100820.00;;;;5008417;28;20212;-81
2023/04/11 05:17:29;;;;;;;4.97;0.75;;;;;13.60;100834.00;;;;5000487;28;20578;-79
2023/04/11 05:19:56;;;;;;;4.15;0.52;;;;;13.60;100834.00;;;;5008567;28;20670;-80
2023/04/11 05:22:23;;;;;;;1.52;0.70;;;;;13.60;100831.00;;;;5009622;28;20209;-80
2023/04/11 05:24:51;;;;;;;2.95;0.82;;;;;13.50;100834.00;;;;4999871;28;20200;-80
2023/04/11 05:27:19;;;;;;;3.80;0.70;;;;;13.50;100843.00;;;;5007265;28;20197;-81
2023/04/11 05:29:47;;;;;;;5.90;0.80;;;;;13.50;100839.00;;;;5005039;28;20220;-81
2023/04/11 05:32:14;;;;;;;2.67;0.40;;;;;13.50;100846.00;;;;5001476;28;20204;-81
2023/04/11 05:34:52;;;;;;;4.03;0.55;;;;;13.40;100839.00;;;;5004660;28;20201;-80
2023/04/11 05:37:20;;;;;;;1.90;0.30;;;;;13.50;100847.00;;;;5007669;28;20205;-81
2023/04/11 05:39:47;;;;;;;2.55;0.60;;;;;13.50;100847.00;;;;5009648;28;20248;-81
2023/04/11 05:42:17;;;;;;;4.72;0.80;;;;;13.50;100855.00;;;;5010116;28;20208;-79
2023/04/11 05:44:46;;;;;;;4.78;0.77;;;;;13.50;100854.00;;;;5005527;28;20225;-80
2023/04/11 05:47:13;;;;;;;3.67;0.68;;;;;13.50;100865.00;;;;5008321;28;20552;-82
2023/04/11 05:49:41;;;;;;;2.70;0.70;;;;;13.50;100854.00;;;;5010397;28;20225;-80
2023/04/11 05:52:10;;;;;;;1.67;0.43;;;;;13.50;100865.00;;;;4996865;28;20212;-83
2023/04/11 05:54:38;;;;;;;5.32;0.63;;;;;13.60;100873.00;;;;5006498;28;20196;-80
2023/04/11 05:57:06;;;;;;;3.75;0.82;;;;;13.60;100878.00;;;;5010190;28;20197;-81
2023/04/11 05:59:34;;;;;;;2.50;0.40;;;;;13.60;100877.00;;;;5006176;28;20259;-82
2023/04/11 06:02:03;;;;;;;4.47;0.50;;;;;13.60;100886.00;;;;5005994;28;20316;-81
2023/04/11 06:04:31;;;;;;;4.13;0.73;;;;;13.60;100880.00;;;;5005168;28;20193;-82
2023/04/11 06:06:59;;;;;;;4.38;1.13;;;;;13.70;100887.00;;;;5007559;28;20208;-81
2023/04/11 06:09:26;;;;;;;2.13;0.50;;;;;13.70;100896.00;;;;5008959;28;20756;-81
2023/04/11 06:11:55;;;;;;;4.28;0.95;;;;;13.80;100899.00;;;;5007056;28;20217;-81
2023/04/11 06:14:23;;;;;;;3.03;0.60;;;;;13.80;100896.00;;;;5009017;28;20201;-82
2023/04/11 06:16:50;;;;;;;3.03;0.65;;;;;13.80;100896.00;;;;5008499;28;20220;-80
2023/04/11 06:19:19;;;;;;;2.03;0.38;;;;;13.90;100897.00;;;;5008662;28;20193;-80
2023/04/11 06:21:47;;;;;;;5.93;0.88;;;;;13.90;100896.00;;;;5009687;28;20286;-80
2023/04/11 06:24:17;;;;;;;2.75;0.65;;;;;14.00;100897.00;;;;5006669;28;20216;-80
2023/04/11 06:26:44;;;;;;;2.67;0.77;;;;;14.00;100902.00;;;;5007528;28;20205;-80
2023/04/11 06:29:11;;;;;;;5.88;0.80;;;;;14.10;100904.00;;;;5009668;28;20225;-80
2023/04/11 06:31:39;;;;;;;5.88;0.98;;;;;14.10;100903.00;;;;5008583;28;20205;-81
2023/04/11 06:34:06;;;;;;;4.30;0.93;;;;;14.20;100908.00;;;;5008625;28;20212;-80
2023/04/11 06:36:36;;;;;;;4.38;0.80;;;;;14.20;100901.00;;;;5007724;28;20205;-81
2023/04/11 06:39:04;;;;;;;3.47;1.17;;;;;14.30;100904.00;;;;5004510;28;20247;-80
2023/04/11 06:41:31;;;;;;;4.93;0.77;;;;;14.40;100907.00;;;;5005867;28;20204;-80
2023/04/11 06:43:59;;;;;;;3.78;0.80;;;;;14.40;100921.00;;;;5006437;28;20971;-81
2023/04/11 06:46:26;;;;;;;4.10;1.00;;;;;14.50;100917.00;;;;5006163;28;20211;-81
2023/04/11 06:48:54;;;;;;;5.07;1.48;;;;;14.60;100924.00;;;;5004178;28;20197;-80
2023/04/11 06:51:21;;;;;;;4.50;1.20;;;;;14.60;100916.00;;;;5007354;28;20201;-79
2023/04/11 06:53:50;;;;;;;6.35;1.27;;;;;14.70;100921.00;;;;5008411;28;20562;-81
2023/04/11 06:56:18;;;;;;;8.10;1.00;;;;;14.80;100941.00;;;;5008803;28;20725;-81
2023/04/11 06:58:45;;;;;;;2.53;0.80;;;;;14.90;100931.00;;;;5004092;28;20201;-81
2023/04/11 07:01:13;;;;;;;5.97;0.90;;;;;14.90;100940.00;;;;5005313;28;20697;-79
2023/04/11 07:03:40;;;;;;;3.92;0.88;;;;;14.90;100938.00;;;;5009337;28;20201;-80
2023/04/11 07:06:08;;;;;;;3.40;0.65;;;;;15.00;100959.00;;;;5009484;28;20200;-80
2023/04/11 07:08:35;;;;;;;4.78;0.77;;;;;15.00;100940.00;;;;4993240;28;20197;-81
2023/04/11 07:11:04;;;;;;;6.22;1.13;;;;;15.00;100948.00;;;;5006093;28;20243;-80
2023/04/11 07:13:31;;;;;;;5.68;1.38;;;;;15.10;100949.00;;;;5008425;28;20208;-81
2023/04/11 07:15:59;;;;;;;3.78;0.55;;;;;15.10;100949.00;;;;5004291;28;20204;-80
2023/04/11 07:18:26;;;;;;;4.32;0.70;;;;;15.20;100953.00;;;;5003541;28;20203;-81
2023/04/11 07:20:53;;;;;;;3.30;0.82;;;;;15.30;100965.00;;;;5004258;28;20663;-80
2023/04/11 07:23:21;;;;;;;2.35;0.52;;;;;15.30;100969.00;;;;5007205;28;20288;-80
2023/04/11 07:25:50;;;;;;;7.80;0.80;;;;;15.30;100957.00;;;;5003527;28;20195;-80
2023/04/11 07:28:18;;;;;;;2.88;0.70;;;;;15.40;100958.00;;;;5007308;28;20283;-80
2023/04/11 07:30:46;;;;;;;3.55;0.75;;;;;15.50;100960.00;;;;5005417;28;20224;-81
2023/04/11 07:33:13;;;;;;;7.20;0.90;;;;;15.60;100959.00;;;;5005790;28;20279;-81
2023/04/11 07:35:40;;;;;;;4.03;1.00;;;;;15.60;100951.00;;;;5007714;28;20758;-82
2023/04/11 07:38:09;;;;;;;6.47;0.70;;;;;15.70;100965.00;;;;5002821;28;20283;-81
2023/04/11 07:40:36;;;;;;;5.82;0.95;;;;;15.70;100970.00;;;;5005507;28;20225;-80
2023/04/11 07:43:03;;;;;;;3.22;0.93;;;;;15.70;100976.00;;;;5007534;28;20204;-81
2023/04/11 07:45:33;;;;;;;8.85;1.27;;;;;15.70;100976.00;;;;5006252;28;20208;-82
2023/04/11 07:48:00;;;;;;;4.82;1.13;;;;;15.70;100983.00;;;;5005271;28;20214;-80
2023/04/11 07:50:28;;;;;;;8.60;1.05;;;;;15.70;100975.00;;;;5000187;28;20237;-80
2023/04/11 07:52:56;;;;;;;7.32;1.23;;;;;15.70;100984.00;;;;5007051;28;20204;-81
2023/04/11 07:55:23;;;;;;;4.18;1.00;;;;;15.80;100979.00;;;;5004213;28;20225;-80
2023/04/11 07:57:51;;;;;;;3.83;1.05;;;;;15.80;100983.00;;;;5006007;28;20200;-81
2023/04/11 08:00:22;;;;;;;5.75;1.20;;;;;15.80;100978.00;;;;5003165;28;20232;-81
2023/04/11 08:02:51;;;;;;;2.60;1.00;;;;;15.90;100976.00;;;;5003528;28;20666;-79
2023/04/11 08:05:19;;;;;;;4.45;1.23;;;;;16.00;100987.00;;;;5004920;28;20236;-81
2023/04/11 08:07:46;;;;;;;4.82;0.70;;;;;16.00;100991.00;;;;5004973;28;20220;-80
2023/04/11 08:10:13;;;;;;;3.50;0.90;;;;;16.10;100994.00;;;;5011932;28;20232;-80
2023/04/11 08:12:42;;;;;;;4.60;1.08;;;;;16.20;100985.00;;;;5008441;28;21168;-79
2023/04/11 08:15:09;;;;;;;3.88;0.98;;;;;16.30;101002.00;;;;5007077;28;20275;-80
2023/04/11 08:17:37;;;;;;;7.03;1.23;;;;;16.30;100997.00;;;;5010228;28;20197;-79
2023/04/11 08:20:10;;;;;;;7.45;1.05;;;;;16.40;101007.00;;;;5008471;28;20376;-78
2023/04/11 08:22:38;;;;;;;5.82;1.05;;;;;16.40;101005.00;;;;5009654;28;20193;-78
2023/04/11 08:25:07;;;;;;;3.33;0.77;;;;;16.50;101011.00;;;;5005947;28;20215;-79
2023/04/11 08:27:34;;;;;;;2.72;0.70;;;;;16.50;101011.00;;;;5008364;28;20221;-80
2023/04/11 08:30:03;;;;;;;3.13;0.85;;;;;16.50;101018.00;;;;5006838;28;20972;-80
2023/04/11 08:32:31;;;;;;;5.20;1.25;;;;;16.50;101040.00;;;;4998342;28;20204;-81
2023/04/11 08:34:58;;;;;;;3.20;0.65;;;;;16.50;101024.00;;;;5010470;28;20209;-80
2023/04/11 08:37:28;;;;;;;5.78;1.10;;;;;16.50;101025.00;;;;5009110;28;20323;-80
2023/04/11 08:39:55;;;;;;;5.20;1.00;;;;;16.60;101032.00;;;;4999756;28;20237;-79
2023/04/11 08:42:24;;;;;;;5.50;1.00;;;;;16.60;101024.00;;;;5005456;28;20201;-81
2023/04/11 08:44:54;;;;;;;5.70;0.88;;;;;16.60;101039.00;;;;5007261;28;20201;-80
2023/04/11 08:47:21;;;;;;;3.13;0.70;;;;;16.70;101033.00;;;;5004713;28;20208;-80
2023/04/11 08:49:49;;;;;;;3.47;1.05;;;;;16.70;101028.00;;;;5009200;28;20204;-80
2023/04/11 08:52:18;;;;;;;4.88;1.00;;;;;16.80;101029.00;;;;5009162;28;20215;-79
2023/04/11 08:54:47;;;;;;;3.78;0.95;;;;;16.90;101035.00;;;;5007458;28;20201;-80
2023/04/11 08:57:24;;;;;;;2.88;0.75;;;;;16.90;101053.00;;;;5007982;28;20193;-81
2023/04/11 08:59:51;;;;;;;5.72;1.33;;;;;16.90;101053.00;;;;5003631;28;20645;-79
2023/04/11 09:02:19;;;;;;;3.60;0.90;;;;;17.00;101055.00;;;;5006866;28;20196;-81
2023/04/11 09:04:47;;;;;;;2.97;0.98;;;;;17.00;101060.00;;;;5009687;28;20201;-82
2023/04/11 09:07:15;;;;;;;5.80;1.05;;;;;17.00;101046.00;;;;5009329;28;20201;-81
2023/04/11 09:09:43;;;;;;;5.28;0.57;;;;;17.10;101060.00;;;;5009894;28;20683;-79
2023/04/11 09:12:13;;;;;;;3.78;0.65;;;;;17.10;101052.00;;;;5011567;28;20225;-81
2023/04/11 09:14:40;;;;;;;6.00;0.57;;;;;17.20;101048.00;;;;5005283;28;20683;-81
2023/04/11 09:17:13;;;;;;;1.90;0.50;;;;;17.30;101049.00;;;;4994678;28;20197;-81
2023/04/11 09:19:41;;;;;;;3.40;0.70;;;;;17.40;101063.00;;;;5010147;28;20292;-81
2023/04/11 09:22:09;;;;;;;3.88;0.80;;;;;17.40;101050.00;;;;5011132;28;20725;-82
2023/04/11 09:24:37;;;;;;;5.65;0.73;;;;;17.50;101060.00;;;;5011214;28;20204;-81
2023/04/11 09:27:11;;;;;;;5.43;0.75;;;;;17.50;101056.00;;;;5010923;28;20197;-81
2023/04/11 09:29:41;;;;;;;3.67;0.70;;;;;17.60;101065.00;;;;5011003;28;20222;-81
2023/04/11 09:32:25;;;;;;;2.97;0.65;;;;;17.70;101051.00;;;;5001599;28;20566;-83
2023/04/11 09:35:06;;;;;;;5.82;1.00;;;;;17.80;101053.00;;;;4991191;28;20296;-79
2023/04/11 09:37:44;;;;;;;3.60;0.60;;;;;17.80;101064.00;;;;4998852;28;20987;-78
2023/04/11 09:40:11;;;;;;;4.32;1.05;;;;;17.80;101070.00;;;;5010569;28;20692;-82
2023/04/11 09:42:41;;;;;;;2.28;0.63;;;;;17.80;101065.00;;;;5010834;28;20193;-83
2023/04/11 09:45:17;;;;;;;3.25;0.47;;;;;17.80;101082.00;;;;5009636;28;20781;-82
2023/04/11 09:47:45;;;;;;;3.10;0.55;;;;;17.80;101069.00;;;;5010362;28;20785;-83
2023/04/11 09:50:13;;;;;;;3.13;0.80;;;;;17.80;101069.00;;;;4993098;28;20233;-82
2023/04/11 09:52:41;;;;;;;2.88;0.50;;;;;17.70;101082.00;;;;4991380;28;20201;-82
2023/04/11 09:55:11;;;;;;;4.82;0.73;;;;;17.80;101075.00;;;;4991318;28;20265;-78
2023/04/11 09:57:44;;;;;;;5.05;0.65;;;;;17.80;101074.00;;;;4993849;28;20205;-79
2023/04/11 10:00:15;;;;;;;3.97;0.50;;;;;17.70;101078.00;;;;5009517;28;20232;-78
2023/04/11 10:02:44;;;;;;;2.88;0.50;;;;;17.70;101087.00;;;;5009954;28;20244;-78
2023/04/11 10:05:13;;;;;;;3.45;0.80;;;;;17.70;101072.00;;;;5008474;28;20209;-78
2023/04/11 10:07:48;;;;;;;2.42;0.52;;;;;17.60;101079.00;;;;5002832;28;20192;-80
2023/04/11 10:10:20;;;;;;;5.13;0.85;;;;;17.60;101073.00;;;;5014619;28;20255;-81
2023/04/11 10:12:49;;;;;;;4.20;0.68;;;;;17.50;101096.00;;;;5014578;28;20215;-79
2023/04/11 10:15:21;;;;;;;6.95;0.80;;;;;17.50;101083.00;;;;5013822;28;20212;-79
2023/04/11 10:18:07;;;;;;;1.88;0.45;;;;;17.40;101087.00;;;;5014013;28;20251;-80
2023/04/11 10:20:45;;;;;;;4.75;0.95;;;;;17.40;101085.00;;;;5003380;28;20197;-80
2023/04/11 10:23:19;;;;;;;5.72;1.08;;;;;17.40;101086.00;;;;5014541;28;20209;-80
2023/04/11 10:25:55;;;;;;;3.80;0.65;;;;;17.50;101074.00;;;;5015497;28;20191;-80
2023/04/11 10:28:38;;;;;;;2.10;0.57;;;;;17.50;101088.00;;;;5011699;28;20193;-79
2023/04/11 10:31:08;;;;;;;2.33;0.60;;;;;17.60;101093.00;;;;5010831;28;20232;-78
2023/04/11 10:33:37;;;;;;;2.78;0.70;;;;;17.70;101077.00;;;;5014353;28;20236;-79
2023/04/11 10:36:08;;;;;;;8.90;0.90;;;;;17.70;101077.00;;;;5010569;28;20201;-80
2023/04/11 10:38:50;;;;;;;2.70;0.60;;;;;17.60;101087.00;;;;5009994;28;20196;-79
2023/04/11 10:41:30;;;;;;;2.25;0.73;;;;;17.70;101101.00;;;;4987881;28;20213;-79
2023/04/11 10:44:19;;;;;;;4.38;0.60;;;;;17.70;101080.00;;;;4990459;28;20212;-79
2023/04/11 10:46:49;;;;;;;5.18;0.52;;;;;17.80;101083.00;;;;4990545;28;20237;-80
2023/04/11 10:49:35;;;;;;;5.55;1.17;;;;;17.80;101102.00;;;;4990573;28;20206;-80
2023/04/11 10:52:20;;;;;;;3.00;0.57;;;;;17.90;101099.00;;;;4992179;28;20242;-80
2023/04/11 10:54:49;;;;;;;2.45;0.60;;;;;18.10;101090.00;;;;5009345;28;20192;-80
2023/04/11 10:57:16;;;;;;;2.20;0.50;;;;;18.10;101091.00;;;;5008151;28;20215;-79
2023/04/11 11:00:12;;;;;;;2.45;0.68;;;;;18.10;101096.00;;;;5007804;28;20201;-79
2023/04/11 11:02:41;;;;;;;2.20;0.73;;;;;18.30;101101.00;;;;5009111;28;20189;-80
2023/04/11 11:05:19;;;;;;;2.83;0.68;;;;;18.40;101082.00;;;;5006517;28;20677;-80
2023/04/11 11:07:48;;;;;;;4.07;0.85;;;;;18.60;101104.00;;;;5007532;28;20205;-80
2023/04/11 11:10:16;;;;;;;3.83;0.82;;;;;18.70;101108.00;;;;5009527;28;20663;-80
2023/04/11 11:12:53;;;;;;;3.45;0.75;;;;;18.80;101103.00;;;;5008782;28;20699;-79
2023/04/11 11:15:22;;;;;;;3.20;1.13;;;;;18.90;101105.00;;;;5003371;28;20196;-80
2023/04/11 11:17:50;;;;;;;2.63;0.60;;;;;19.00;101108.00;;;;5009418;28;20201;-81
2023/04/11 11:20:19;;;;;;;3.30;1.40;;;;;19.00;101111.00;;;;5008835;28;20237;-79
2023/04/11 11:23:00;;;;;;;2.95;0.73;;;;;19.10;101114.00;;;;5008612;28;20447;-80
2023/04/11 11:25:27;;;;;;;2.75;0.60;;;;;19.30;101120.00;;;;5008807;28;20584;-80
2023/04/11 11:28:05;;;;;;;1.90;0.32;;;;;19.30;101117.00;;;;5009017;28;20205;-80
2023/04/11 11:30:34;;;;;;;3.75;1.05;;;;;19.50;101122.00;;;;5004678;28;20206;-81
2023/04/11 11:33:16;;;;;;;3.88;0.75;;;;;19.60;101132.00;;;;5009372;28;20192;-80
2023/04/11 11:35:56;;;;;;;4.07;1.10;;;;;19.80;101132.00;;;;5008354;28;20295;-80
2023/04/11 11:38:26;;;;;;;3.65;0.65;;;;;19.80;101140.00;;;;5009191;28;20204;-81
2023/04/11 11:40:54;;;;;;;3.17;0.90;;;;;19.90;101139.00;;;;5008756;28;20251;-80
2023/04/11 11:43:22;;;;;;;4.00;0.73;;;;;20.00;101134.00;;;;5008327;28;20352;-80
2023/04/11 11:46:07;;;;;;;3.30;0.95;;;;;19.90;101144.00;;;;5007900;28;20686;-81
2023/04/11 11:48:35;;;;;;;3.55;0.73;;;;;20.10;101135.00;;;;4995948;28;20237;-81
2023/04/11 11:51:02;;;;;;;2.92;0.57;;;;;20.10;101140.00;;;;4988768;28;20232;-80
2023/04/11 11:53:30;;;;;;;2.60;1.13;;;;;20.10;101137.00;;;;4989332;28;20197;-80
2023/04/11 11:55:58;;;;;;;2.13;0.88;;;;;20.10;101135.00;;;;5003486;28;20205;-79
2023/04/11 11:58:27;;;;;;;1.58;0.45;;;;;20.10;101136.00;;;;5008071;28;20375;-80
2023/04/11 12:00:56;;;;;;;6.95;1.13;;;;;20.20;101146.00;;;;4994960;28;20224;-80
2023/04/11 12:03:24;;;;;;;2.88;0.50;;;;;20.30;101153.00;;;;4988532;28;20212;-81
2023/04/11 12:05:56;;;;;;;4.43;1.02;;;;;20.40;101158.00;;;;4994343;28;20193;-81
2023/04/11 12:08:25;;;;;;;33.80;2.30;;;;;20.40;101153.00;;;;5008024;28;20209;-82
2023/04/11 12:10:52;;;;;;;6.05;0.63;;;;;20.40;101154.00;;;;5007120;28;20203;-81
2023/04/11 12:13:21;;;;;;;3.15;0.73;;;;;20.50;101152.00;;;;5008144;28;20197;-80
2023/04/11 12:15:52;;;;;;;4.28;0.82;;;;;20.50;101144.00;;;;5008050;28;20204;-81